sensor_id;sensor_type;location;lat;lon;timestamp;temperature;humidity
17200;DHT22;8716;52.268;20.968;2023-07-31T00:00:05;19.70;99.90
17200;DHT22;8716;52.268;20.968;2023-07-31T00:02:36;19.70;99.90
17200;DHT22;8716;52.268;20.968;2023-07-31T00:05:05;19.60;99.90
17200;DHT22;8716;52.268;20.968;2023-07-31T00:07:33;19.60;99.90
17200;DHT22;8716;52.268;20.968;2023-07-31T00:10:01;19.60;99.90
17200;DHT22;8716;52.268;20.968;2023-07-31T00:12:30;19.50;99.90
17200;DHT22;8716;52.268;20.968;2023-07-31T00:15:00;19.50;99.90
17200;DHT22;8716;52.268;20.968;2023-07-31T00:17:28;19.40;99.90
17200;DHT22;8716;52.268;20.968;2023-07-31T00:19:56;19.40;99.90
17200;DHT22;8716;52.268;20.968;2023-07-31T00:22:25;19.40;99.90
17200;DHT22;8716;52.268;20.968;2023-07-31T00:24:53;19.30;99.90
17200;DHT22;8716;52.268;20.968;2023-07-31T00:27:24;19.30;99.90
17200;DHT22;8716;52.268;20.968;2023-07-31T00:29:52;19.30;99.90
17200;DHT22;8716;52.268;20.968;2023-07-31T00:32:21;19.30;99.90
17200;DHT22;8716;52.268;20.968;2023-07-31T00:34:50;19.20;99.90
17200;DHT22;8716;52.268;20.968;2023-07-31T00:37:18;19.20;99.90
17200;DHT22;8716;52.268;20.968;2023-07-31T00:39:47;19.20;99.90
17200;DHT22;8716;52.268;20.968;2023-07-31T00:42:17;19.20;99.90
17200;DHT22;8716;52.268;20.968;2023-07-31T00:44:48;19.20;99.90
17200;DHT22;8716;52.268;20.968;2023-07-31T00:47:16;19.10;99.90
17200;DHT22;8716;52.268;20.968;2023-07-31T00:49:46;19.10;99.90
17200;DHT22;8716;52.268;20.968;2023-07-31T00:52:14;19.10;99.90
17200;DHT22;8716;52.268;20.968;2023-07-31T00:54:43;19.10;99.90
17200;DHT22;8716;52.268;20.968;2023-07-31T00:57:11;19.10;99.90
17200;DHT22;8716;52.268;20.968;2023-07-31T00:59:40;19.00;99.90
17200;DHT22;8716;52.268;20.968;2023-07-31T01:02:08;19.00;99.90
17200;DHT22;8716;52.268;20.968;2023-07-31T01:04:37;19.00;99.90
17200;DHT22;8716;52.268;20.968;2023-07-31T01:07:13;19.00;99.90
17200;DHT22;8716;52.268;20.968;2023-07-31T01:09:45;19.00;99.90
17200;DHT22;8716;52.268;20.968;2023-07-31T01:12:16;19.00;99.90
17200;DHT22;8716;52.268;20.968;2023-07-31T01:14:51;19.00;99.90
17200;DHT22;8716;52.268;20.968;2023-07-31T01:17:20;18.90;99.90
17200;DHT22;8716;52.268;20.968;2023-07-31T01:19:49;18.90;99.90
17200;DHT22;8716;52.268;20.968;2023-07-31T01:22:34;18.80;99.90
17200;DHT22;8716;52.268;20.968;2023-07-31T01:25:19;18.80;99.90
17200;DHT22;8716;52.268;20.968;2023-07-31T01:27:55;18.80;99.90
17200;DHT22;8716;52.268;20.968;2023-07-31T01:30:29;18.80;99.90
17200;DHT22;8716;52.268;20.968;2023-07-31T01:33:02;18.80;99.90
17200;DHT22;8716;52.268;20.968;2023-07-31T01:35:38;18.70;99.90
17200;DHT22;8716;52.268;20.968;2023-07-31T01:38:06;18.70;99.90
17200;DHT22;8716;52.268;20.968;2023-07-31T01:40:35;18.70;99.90
17200;DHT22;8716;52.268;20.968;2023-07-31T01:43:04;18.60;99.90
17200;DHT22;8716;52.268;20.968;2023-07-31T01:45:33;18.60;99.90
17200;DHT22;8716;52.268;20.968;2023-07-31T01:48:01;18.60;99.90
17200;DHT22;8716;52.268;20.968;2023-07-31T01:50:29;18.60;99.90
17200;DHT22;8716;52.268;20.968;2023-07-31T01:52:58;18.60;99.90
17200;DHT22;8716;52.268;20.968;2023-07-31T01:55:28;18.60;99.90
17200;DHT22;8716;52.268;20.968;2023-07-31T01:57:57;18.50;99.90
17200;DHT22;8716;52.268;20.968;2023-07-31T02:00:27;18.50;99.90
17200;DHT22;8716;52.268;20.968;2023-07-31T02:02:55;18.50;99.90
17200;DHT22;8716;52.268;20.968;2023-07-31T02:05:24;18.40;99.90
17200;DHT22;8716;52.268;20.968;2023-07-31T02:07:52;18.40;99.90
17200;DHT22;8716;52.268;20.968;2023-07-31T02:10:20;18.40;99.90
17200;DHT22;8716;52.268;20.968;2023-07-31T02:12:49;18.40;99.90
17200;DHT22;8716;52.268;20.968;2023-07-31T02:15:17;18.30;99.90
17200;DHT22;8716;52.268;20.968;2023-07-31T02:17:47;18.30;99.90
17200;DHT22;8716;52.268;20.968;2023-07-31T02:20:18;18.30;99.90
17200;DHT22;8716;52.268;20.968;2023-07-31T02:22:47;18.20;99.90
17200;DHT22;8716;52.268;20.968;2023-07-31T02:25:19;18.20;99.90
17200;DHT22;8716;52.268;20.968;2023-07-31T02:27:47;18.20;99.90
17200;DHT22;8716;52.268;20.968;2023-07-31T02:30:15;18.10;99.90
17200;DHT22;8716;52.268;20.968;2023-07-31T02:32:44;18.10;99.90
17200;DHT22;8716;52.268;20.968;2023-07-31T02:35:17;18.10;99.90
17200;DHT22;8716;52.268;20.968;2023-07-31T02:37:46;18.10;99.90
17200;DHT22;8716;52.268;20.968;2023-07-31T02:40:14;18.10;99.90
17200;DHT22;8716;52.268;20.968;2023-07-31T02:42:42;18.10;99.90
17200;DHT22;8716;52.268;20.968;2023-07-31T02:45:11;18.00;99.90
17200;DHT22;8716;52.268;20.968;2023-07-31T02:47:41;18.00;99.90
17200;DHT22;8716;52.268;20.968;2023-07-31T02:50:10;18.00;99.90
17200;DHT22;8716;52.268;20.968;2023-07-31T02:52:39;18.00;99.90
17200;DHT22;8716;52.268;20.968;2023-07-31T02:55:08;18.10;99.90
17200;DHT22;8716;52.268;20.968;2023-07-31T02:57:36;18.10;99.90
17200;DHT22;8716;52.268;20.968;2023-07-31T03:00:06;18.10;99.90
17200;DHT22;8716;52.268;20.968;2023-07-31T03:02:34;18.10;99.90
17200;DHT22;8716;52.268;20.968;2023-07-31T03:05:03;18.10;99.90
17200;DHT22;8716;52.268;20.968;2023-07-31T03:07:32;18.10;99.90
17200;DHT22;8716;52.268;20.968;2023-07-31T03:10:05;18.10;99.90
17200;DHT22;8716;52.268;20.968;2023-07-31T03:12:34;18.10;99.90
17200;DHT22;8716;52.268;20.968;2023-07-31T03:15:02;18.10;99.90
17200;DHT22;8716;52.268;20.968;2023-07-31T03:17:31;18.20;99.90
17200;DHT22;8716;52.268;20.968;2023-07-31T03:19:59;18.20;99.90
17200;DHT22;8716;52.268;20.968;2023-07-31T03:22:27;18.20;99.90
17200;DHT22;8716;52.268;20.968;2023-07-31T03:24:56;18.20;99.90
17200;DHT22;8716;52.268;20.968;2023-07-31T03:27:25;18.20;99.90
17200;DHT22;8716;52.268;20.968;2023-07-31T03:29:54;18.20;99.90
17200;DHT22;8716;52.268;20.968;2023-07-31T03:32:22;18.20;99.90
17200;DHT22;8716;52.268;20.968;2023-07-31T03:34:51;18.30;99.90
17200;DHT22;8716;52.268;20.968;2023-07-31T03:37:19;18.30;99.90
17200;DHT22;8716;52.268;20.968;2023-07-31T03:39:47;18.30;99.90
17200;DHT22;8716;52.268;20.968;2023-07-31T03:42:16;18.30;99.90
17200;DHT22;8716;52.268;20.968;2023-07-31T03:44:46;18.40;99.90
17200;DHT22;8716;52.268;20.968;2023-07-31T03:47:14;18.40;99.90
17200;DHT22;8716;52.268;20.968;2023-07-31T03:49:44;18.40;99.90
17200;DHT22;8716;52.268;20.968;2023-07-31T03:52:12;18.40;99.90
17200;DHT22;8716;52.268;20.968;2023-07-31T03:54:41;18.40;99.90
17200;DHT22;8716;52.268;20.968;2023-07-31T03:57:11;18.50;99.90
17200;DHT22;8716;52.268;20.968;2023-07-31T03:59:39;18.60;99.90
17200;DHT22;8716;52.268;20.968;2023-07-31T04:02:11;18.50;99.90
17200;DHT22;8716;52.268;20.968;2023-07-31T04:04:41;18.50;99.90
17200;DHT22;8716;52.268;20.968;2023-07-31T04:07:09;18.50;99.90
17200;DHT22;8716;52.268;20.968;2023-07-31T04:09:38;18.60;99.90
17200;DHT22;8716;52.268;20.968;2023-07-31T04:12:07;18.60;99.90
17200;DHT22;8716;52.268;20.968;2023-07-31T04:14:37;18.60;99.90
17200;DHT22;8716;52.268;20.968;2023-07-31T04:17:06;18.70;99.90
17200;DHT22;8716;52.268;20.968;2023-07-31T04:19:39;18.60;99.90
17200;DHT22;8716;52.268;20.968;2023-07-31T04:22:07;18.70;99.90
17200;DHT22;8716;52.268;20.968;2023-07-31T04:24:36;18.70;99.90
17200;DHT22;8716;52.268;20.968;2023-07-31T04:27:04;18.70;99.90
17200;DHT22;8716;52.268;20.968;2023-07-31T04:29:33;18.70;99.90
17200;DHT22;8716;52.268;20.968;2023-07-31T04:32:01;18.70;99.90
17200;DHT22;8716;52.268;20.968;2023-07-31T04:34:30;18.70;99.90
17200;DHT22;8716;52.268;20.968;2023-07-31T04:36:59;18.70;99.90
17200;DHT22;8716;52.268;20.968;2023-07-31T04:39:28;18.80;99.90
17200;DHT22;8716;52.268;20.968;2023-07-31T04:41:56;18.80;99.90
17200;DHT22;8716;52.268;20.968;2023-07-31T04:44:24;18.90;99.90
17200;DHT22;8716;52.268;20.968;2023-07-31T04:46:52;18.90;99.90
17200;DHT22;8716;52.268;20.968;2023-07-31T04:49:22;18.90;99.90
17200;DHT22;8716;52.268;20.968;2023-07-31T04:51:50;18.90;99.90
17200;DHT22;8716;52.268;20.968;2023-07-31T04:54:20;19.00;99.90
17200;DHT22;8716;52.268;20.968;2023-07-31T04:56:52;19.00;99.90
17200;DHT22;8716;52.268;20.968;2023-07-31T04:59:20;19.00;99.90
17200;DHT22;8716;52.268;20.968;2023-07-31T05:01:49;19.00;99.90
17200;DHT22;8716;52.268;20.968;2023-07-31T05:04:17;19.10;99.90
17200;DHT22;8716;52.268;20.968;2023-07-31T05:06:45;19.10;99.90
17200;DHT22;8716;52.268;20.968;2023-07-31T05:09:14;19.10;99.90
17200;DHT22;8716;52.268;20.968;2023-07-31T05:11:44;19.10;99.90
17200;DHT22;8716;52.268;20.968;2023-07-31T05:14:13;19.20;99.90
17200;DHT22;8716;52.268;20.968;2023-07-31T05:16:42;19.20;99.90
17200;DHT22;8716;52.268;20.968;2023-07-31T05:19:11;19.30;99.90
17200;DHT22;8716;52.268;20.968;2023-07-31T05:21:39;19.30;99.90
17200;DHT22;8716;52.268;20.968;2023-07-31T05:24:07;19.30;99.90
17200;DHT22;8716;52.268;20.968;2023-07-31T05:26:36;19.30;99.90
17200;DHT22;8716;52.268;20.968;2023-07-31T05:29:06;19.40;99.90
17200;DHT22;8716;52.268;20.968;2023-07-31T05:31:35;19.50;99.90
17200;DHT22;8716;52.268;20.968;2023-07-31T05:34:05;19.50;99.90
17200;DHT22;8716;52.268;20.968;2023-07-31T05:36:33;19.60;99.90
17200;DHT22;8716;52.268;20.968;2023-07-31T05:39:02;19.60;99.90
17200;DHT22;8716;52.268;20.968;2023-07-31T05:41:35;19.70;99.90
17200;DHT22;8716;52.268;20.968;2023-07-31T05:44:03;19.70;99.90
17200;DHT22;8716;52.268;20.968;2023-07-31T05:46:33;19.70;99.90
17200;DHT22;8716;52.268;20.968;2023-07-31T05:49:02;19.70;99.90
17200;DHT22;8716;52.268;20.968;2023-07-31T05:51:30;19.80;99.90
17200;DHT22;8716;52.268;20.968;2023-07-31T05:53:58;19.80;99.90
17200;DHT22;8716;52.268;20.968;2023-07-31T05:56:26;19.80;99.90
17200;DHT22;8716;52.268;20.968;2023-07-31T05:58:58;19.90;99.90
17200;DHT22;8716;52.268;20.968;2023-07-31T06:01:26;19.90;99.90
17200;DHT22;8716;52.268;20.968;2023-07-31T06:03:58;20.00;99.90
17200;DHT22;8716;52.268;20.968;2023-07-31T06:06:26;20.00;99.90
17200;DHT22;8716;52.268;20.968;2023-07-31T06:09:02;20.10;99.90
17200;DHT22;8716;52.268;20.968;2023-07-31T06:11:33;20.10;99.90
17200;DHT22;8716;52.268;20.968;2023-07-31T06:14:05;20.20;99.90
17200;DHT22;8716;52.268;20.968;2023-07-31T06:16:34;20.30;99.90
17200;DHT22;8716;52.268;20.968;2023-07-31T06:19:04;20.30;99.90
17200;DHT22;8716;52.268;20.968;2023-07-31T06:21:34;20.30;99.90
17200;DHT22;8716;52.268;20.968;2023-07-31T06:24:05;20.40;99.90
17200;DHT22;8716;52.268;20.968;2023-07-31T06:26:36;20.30;99.90
17200;DHT22;8716;52.268;20.968;2023-07-31T06:29:05;20.40;99.90
17200;DHT22;8716;52.268;20.968;2023-07-31T06:31:34;20.40;99.90
17200;DHT22;8716;52.268;20.968;2023-07-31T06:34:04;20.40;99.90
17200;DHT22;8716;52.268;20.968;2023-07-31T06:36:32;20.40;99.90
17200;DHT22;8716;52.268;20.968;2023-07-31T06:39:01;20.30;99.90
17200;DHT22;8716;52.268;20.968;2023-07-31T06:41:33;20.30;99.90
17200;DHT22;8716;52.268;20.968;2023-07-31T06:44:05;20.10;99.90
17200;DHT22;8716;52.268;20.968;2023-07-31T06:46:34;20.10;99.90
17200;DHT22;8716;52.268;20.968;2023-07-31T06:49:03;20.00;99.90
17200;DHT22;8716;52.268;20.968;2023-07-31T06:51:32;20.10;99.90
17200;DHT22;8716;52.268;20.968;2023-07-31T06:54:00;20.00;99.90
17200;DHT22;8716;52.268;20.968;2023-07-31T06:56:28;20.00;99.90
17200;DHT22;8716;52.268;20.968;2023-07-31T06:58:56;20.10;99.90
17200;DHT22;8716;52.268;20.968;2023-07-31T07:01:25;20.10;99.90
17200;DHT22;8716;52.268;20.968;2023-07-31T07:03:55;20.10;99.90
17200;DHT22;8716;52.268;20.968;2023-07-31T07:06:24;20.20;99.90
17200;DHT22;8716;52.268;20.968;2023-07-31T07:08:53;20.20;99.90
17200;DHT22;8716;52.268;20.968;2023-07-31T07:11:21;20.20;99.90
17200;DHT22;8716;52.268;20.968;2023-07-31T07:13:49;20.30;99.90
17200;DHT22;8716;52.268;20.968;2023-07-31T07:16:17;20.60;99.90
17200;DHT22;8716;52.268;20.968;2023-07-31T07:18:46;21.30;99.90
17200;DHT22;8716;52.268;20.968;2023-07-31T07:21:31;21.90;99.90
17200;DHT22;8716;52.268;20.968;2023-07-31T07:23:59;22.40;99.90
17200;DHT22;8716;52.268;20.968;2023-07-31T07:26:27;23.20;99.90
17200;DHT22;8716;52.268;20.968;2023-07-31T07:28:56;24.10;99.90
17200;DHT22;8716;52.268;20.968;2023-07-31T07:31:27;25.30;99.90
17200;DHT22;8716;52.268;20.968;2023-07-31T07:33:56;26.70;99.90
17200;DHT22;8716;52.268;20.968;2023-07-31T07:36:24;27.60;99.90
17200;DHT22;8716;52.268;20.968;2023-07-31T07:38:56;28.20;99.90
17200;DHT22;8716;52.268;20.968;2023-07-31T07:41:24;28.70;99.90
17200;DHT22;8716;52.268;20.968;2023-07-31T07:43:53;28.90;99.90
17200;DHT22;8716;52.268;20.968;2023-07-31T07:46:21;29.20;99.90
17200;DHT22;8716;52.268;20.968;2023-07-31T07:49:25;29.60;99.90
17200;DHT22;8716;52.268;20.968;2023-07-31T07:51:54;30.00;99.90
17200;DHT22;8716;52.268;20.968;2023-07-31T07:54:24;30.10;99.90
17200;DHT22;8716;52.268;20.968;2023-07-31T07:56:53;29.90;99.90
17200;DHT22;8716;52.268;20.968;2023-07-31T07:59:21;29.60;99.90
17200;DHT22;8716;52.268;20.968;2023-07-31T08:01:49;29.60;99.90
17200;DHT22;8716;52.268;20.968;2023-07-31T08:04:18;30.00;99.90
17200;DHT22;8716;52.268;20.968;2023-07-31T08:06:46;30.50;99.90
17200;DHT22;8716;52.268;20.968;2023-07-31T08:09:17;30.60;99.90
17200;DHT22;8716;52.268;20.968;2023-07-31T08:11:46;30.90;99.90
17200;DHT22;8716;52.268;20.968;2023-07-31T08:14:15;31.50;99.90
17200;DHT22;8716;52.268;20.968;2023-07-31T08:16:43;32.20;99.90
17200;DHT22;8716;52.268;20.968;2023-07-31T08:19:11;33.00;99.90
17200;DHT22;8716;52.268;20.968;2023-07-31T08:21:40;33.90;99.40
17200;DHT22;8716;52.268;20.968;2023-07-31T08:24:08;34.90;95.90
17200;DHT22;8716;52.268;20.968;2023-07-31T08:26:36;35.90;93.10
17200;DHT22;8716;52.268;20.968;2023-07-31T08:29:07;36.70;89.10
17200;DHT22;8716;52.268;20.968;2023-07-31T08:31:35;37.40;83.50
17200;DHT22;8716;52.268;20.968;2023-07-31T08:34:03;38.00;78.70
17200;DHT22;8716;52.268;20.968;2023-07-31T08:36:32;38.60;76.20
17200;DHT22;8716;52.268;20.968;2023-07-31T08:39:00;39.00;73.70
17200;DHT22;8716;52.268;20.968;2023-07-31T08:41:29;39.20;71.10
17200;DHT22;8716;52.268;20.968;2023-07-31T08:43:59;39.50;69.40
17200;DHT22;8716;52.268;20.968;2023-07-31T08:46:30;39.70;66.10
17200;DHT22;8716;52.268;20.968;2023-07-31T08:48:59;39.90;65.80
17200;DHT22;8716;52.268;20.968;2023-07-31T08:51:28;40.00;63.10
17200;DHT22;8716;52.268;20.968;2023-07-31T08:53:57;40.30;61.50
17200;DHT22;8716;52.268;20.968;2023-07-31T08:56:28;40.50;59.90
17200;DHT22;8716;52.268;20.968;2023-07-31T08:58:58;40.50;60.30
17200;DHT22;8716;52.268;20.968;2023-07-31T09:01:30;40.80;59.60
17200;DHT22;8716;52.268;20.968;2023-07-31T09:04:00;41.00;59.00
17200;DHT22;8716;52.268;20.968;2023-07-31T09:06:30;41.10;58.10
17200;DHT22;8716;52.268;20.968;2023-07-31T09:08:59;41.40;56.80
17200;DHT22;8716;52.268;20.968;2023-07-31T09:11:27;41.40;56.00
17200;DHT22;8716;52.268;20.968;2023-07-31T09:13:57;41.20;56.20
17200;DHT22;8716;52.268;20.968;2023-07-31T09:16:30;41.00;56.40
17200;DHT22;8716;52.268;20.968;2023-07-31T09:18:59;40.60;56.30
17200;DHT22;8716;52.268;20.968;2023-07-31T09:21:29;40.40;56.10
17200;DHT22;8716;52.268;20.968;2023-07-31T09:23:57;39.90;56.00
17200;DHT22;8716;52.268;20.968;2023-07-31T09:26:30;39.40;57.90
17200;DHT22;8716;52.268;20.968;2023-07-31T09:29:01;39.10;57.50
17200;DHT22;8716;52.268;20.968;2023-07-31T09:31:40;38.70;57.60
17200;DHT22;8716;52.268;20.968;2023-07-31T09:34:09;38.60;58.60
17200;DHT22;8716;52.268;20.968;2023-07-31T09:36:41;38.30;57.90
17200;DHT22;8716;52.268;20.968;2023-07-31T09:39:12;37.90;58.40
17200;DHT22;8716;52.268;20.968;2023-07-31T09:41:43;37.00;57.90
17200;DHT22;8716;52.268;20.968;2023-07-31T09:44:11;36.40;59.10
17200;DHT22;8716;52.268;20.968;2023-07-31T09:46:42;36.40;60.00
17200;DHT22;8716;52.268;20.968;2023-07-31T09:49:12;36.10;59.60
17200;DHT22;8716;52.268;20.968;2023-07-31T09:51:42;36.00;60.10
17200;DHT22;8716;52.268;20.968;2023-07-31T09:54:11;35.60;60.70
17200;DHT22;8716;52.268;20.968;2023-07-31T09:56:43;35.00;60.40
17200;DHT22;8716;52.268;20.968;2023-07-31T09:59:13;34.80;62.80
17200;DHT22;8716;52.268;20.968;2023-07-31T10:01:46;35.00;62.80
17200;DHT22;8716;52.268;20.968;2023-07-31T10:04:17;35.40;61.30
17200;DHT22;8716;52.268;20.968;2023-07-31T10:06:50;35.60;60.40
17200;DHT22;8716;52.268;20.968;2023-07-31T10:09:22;35.90;59.90
17200;DHT22;8716;52.268;20.968;2023-07-31T10:11:58;36.40;59.70
17200;DHT22;8716;52.268;20.968;2023-07-31T10:14:27;36.60;58.60
17200;DHT22;8716;52.268;20.968;2023-07-31T10:16:58;37.00;58.20
17200;DHT22;8716;52.268;20.968;2023-07-31T10:19:27;37.40;57.00
17200;DHT22;8716;52.268;20.968;2023-07-31T10:21:58;37.70;57.10
17200;DHT22;8716;52.268;20.968;2023-07-31T10:24:27;38.00;56.00
17200;DHT22;8716;52.268;20.968;2023-07-31T10:26:57;38.30;55.20
17200;DHT22;8716;52.268;20.968;2023-07-31T10:29:28;38.50;54.70
17200;DHT22;8716;52.268;20.968;2023-07-31T10:31:59;38.30;53.80
17200;DHT22;8716;52.268;20.968;2023-07-31T10:34:28;38.20;54.30
17200;DHT22;8716;52.268;20.968;2023-07-31T10:37:24;38.20;53.20
17200;DHT22;8716;52.268;20.968;2023-07-31T10:39:57;38.10;53.90
17200;DHT22;8716;52.268;20.968;2023-07-31T10:42:31;38.00;54.10
17200;DHT22;8716;52.268;20.968;2023-07-31T10:45:00;37.70;53.70
17200;DHT22;8716;52.268;20.968;2023-07-31T10:47:30;37.30;54.00
17200;DHT22;8716;52.268;20.968;2023-07-31T10:50:17;37.10;54.20
17200;DHT22;8716;52.268;20.968;2023-07-31T10:52:48;37.10;55.40
17200;DHT22;8716;52.268;20.968;2023-07-31T10:55:27;37.10;54.20
17200;DHT22;8716;52.268;20.968;2023-07-31T10:58:05;37.00;54.10
17200;DHT22;8716;52.268;20.968;2023-07-31T11:00:37;37.10;54.10
17200;DHT22;8716;52.268;20.968;2023-07-31T11:03:08;37.10;53.40
17200;DHT22;8716;52.268;20.968;2023-07-31T11:05:51;36.60;53.50
17200;DHT22;8716;52.268;20.968;2023-07-31T11:08:23;36.00;54.20
17200;DHT22;8716;52.268;20.968;2023-07-31T11:11:05;35.50;55.40
17200;DHT22;8716;52.268;20.968;2023-07-31T11:13:39;35.10;56.00
17200;DHT22;8716;52.268;20.968;2023-07-31T11:16:07;34.90;56.70
17200;DHT22;8716;52.268;20.968;2023-07-31T11:18:38;34.70;57.00
17200;DHT22;8716;52.268;20.968;2023-07-31T11:21:07;34.50;57.70
17200;DHT22;8716;52.268;20.968;2023-07-31T11:23:37;34.30;58.60
17200;DHT22;8716;52.268;20.968;2023-07-31T11:26:06;34.00;57.80
17200;DHT22;8716;52.268;20.968;2023-07-31T11:28:35;33.70;57.90
17200;DHT22;8716;52.268;20.968;2023-07-31T11:31:04;33.40;58.40
17200;DHT22;8716;52.268;20.968;2023-07-31T11:33:32;33.30;59.10
17200;DHT22;8716;52.268;20.968;2023-07-31T11:36:02;33.00;59.80
17200;DHT22;8716;52.268;20.968;2023-07-31T11:38:32;32.70;60.20
17200;DHT22;8716;52.268;20.968;2023-07-31T11:41:02;32.60;61.10
17200;DHT22;8716;52.268;20.968;2023-07-31T11:43:32;32.50;60.70
17200;DHT22;8716;52.268;20.968;2023-07-31T11:46:03;32.30;60.80
17200;DHT22;8716;52.268;20.968;2023-07-31T11:48:35;32.10;60.20
17200;DHT22;8716;52.268;20.968;2023-07-31T11:51:10;31.90;60.80
17200;DHT22;8716;52.268;20.968;2023-07-31T11:53:43;31.70;61.10
17200;DHT22;8716;52.268;20.968;2023-07-31T11:56:13;31.50;60.90
17200;DHT22;8716;52.268;20.968;2023-07-31T11:58:43;31.30;61.60
17200;DHT22;8716;52.268;20.968;2023-07-31T12:01:14;31.10;61.70
17200;DHT22;8716;52.268;20.968;2023-07-31T12:03:47;30.90;62.20
17200;DHT22;8716;52.268;20.968;2023-07-31T12:06:17;30.60;63.20
17200;DHT22;8716;52.268;20.968;2023-07-31T12:08:47;30.50;64.10
17200;DHT22;8716;52.268;20.968;2023-07-31T12:11:17;30.30;64.50
17200;DHT22;8716;52.268;20.968;2023-07-31T12:13:45;30.20;64.10
17200;DHT22;8716;52.268;20.968;2023-07-31T12:16:16;30.10;65.40
17200;DHT22;8716;52.268;20.968;2023-07-31T12:18:44;29.90;65.80
17200;DHT22;8716;52.268;20.968;2023-07-31T12:21:12;29.80;67.10
17200;DHT22;8716;52.268;20.968;2023-07-31T12:23:44;29.70;66.80
17200;DHT22;8716;52.268;20.968;2023-07-31T12:26:13;29.60;66.40
17200;DHT22;8716;52.268;20.968;2023-07-31T12:28:43;29.50;67.30
17200;DHT22;8716;52.268;20.968;2023-07-31T12:31:12;29.30;67.50
17200;DHT22;8716;52.268;20.968;2023-07-31T12:33:41;29.30;68.00
17200;DHT22;8716;52.268;20.968;2023-07-31T12:36:13;29.10;68.20
17200;DHT22;8716;52.268;20.968;2023-07-31T12:38:43;29.00;68.80
17200;DHT22;8716;52.268;20.968;2023-07-31T12:41:12;29.00;69.00
17200;DHT22;8716;52.268;20.968;2023-07-31T12:43:42;28.90;69.40
17200;DHT22;8716;52.268;20.968;2023-07-31T12:46:10;28.80;69.50
17200;DHT22;8716;52.268;20.968;2023-07-31T12:48:40;28.80;71.70
17200;DHT22;8716;52.268;20.968;2023-07-31T12:51:08;28.70;70.60
17200;DHT22;8716;52.268;20.968;2023-07-31T12:53:37;28.60;70.20
17200;DHT22;8716;52.268;20.968;2023-07-31T12:56:06;28.30;69.70
17200;DHT22;8716;52.268;20.968;2023-07-31T12:58:35;28.30;71.30
17200;DHT22;8716;52.268;20.968;2023-07-31T13:01:03;28.20;71.50
17200;DHT22;8716;52.268;20.968;2023-07-31T13:03:33;28.20;71.90
17200;DHT22;8716;52.268;20.968;2023-07-31T13:06:01;28.20;71.80
17200;DHT22;8716;52.268;20.968;2023-07-31T13:08:29;28.20;71.10
17200;DHT22;8716;52.268;20.968;2023-07-31T13:10:58;28.10;71.60
17200;DHT22;8716;52.268;20.968;2023-07-31T13:13:27;28.20;72.10
17200;DHT22;8716;52.268;20.968;2023-07-31T13:15:59;28.20;71.30
17200;DHT22;8716;52.268;20.968;2023-07-31T13:18:27;28.30;71.30
17200;DHT22;8716;52.268;20.968;2023-07-31T13:20:58;28.30;70.70
17200;DHT22;8716;52.268;20.968;2023-07-31T13:23:26;28.40;70.50
17200;DHT22;8716;52.268;20.968;2023-07-31T13:25:55;28.50;70.30
17200;DHT22;8716;52.268;20.968;2023-07-31T13:28:23;28.60;70.30
17200;DHT22;8716;52.268;20.968;2023-07-31T13:30:53;28.60;69.90
17200;DHT22;8716;52.268;20.968;2023-07-31T13:33:21;28.50;68.80
17200;DHT22;8716;52.268;20.968;2023-07-31T13:36:04;28.40;68.40
17200;DHT22;8716;52.268;20.968;2023-07-31T13:38:32;28.30;68.10
17200;DHT22;8716;52.268;20.968;2023-07-31T13:41:00;28.20;68.10
17200;DHT22;8716;52.268;20.968;2023-07-31T13:43:29;28.20;67.90
17200;DHT22;8716;52.268;20.968;2023-07-31T13:45:58;28.00;68.30
17200;DHT22;8716;52.268;20.968;2023-07-31T13:48:31;28.00;69.30
17200;DHT22;8716;52.268;20.968;2023-07-31T13:50:59;28.00;68.80
17200;DHT22;8716;52.268;20.968;2023-07-31T13:53:27;28.10;69.00
17200;DHT22;8716;52.268;20.968;2023-07-31T13:55:56;28.10;67.50
17200;DHT22;8716;52.268;20.968;2023-07-31T13:58:24;28.00;67.60
17200;DHT22;8716;52.268;20.968;2023-07-31T14:00:52;27.80;67.50
17200;DHT22;8716;52.268;20.968;2023-07-31T14:03:22;27.70;67.70
17200;DHT22;8716;52.268;20.968;2023-07-31T14:05:51;27.60;68.40
17200;DHT22;8716;52.268;20.968;2023-07-31T14:08:20;27.50;68.20
17200;DHT22;8716;52.268;20.968;2023-07-31T14:10:49;27.40;68.10
17200;DHT22;8716;52.268;20.968;2023-07-31T14:13:17;27.40;68.80
17200;DHT22;8716;52.268;20.968;2023-07-31T14:15:45;27.20;68.80
17200;DHT22;8716;52.268;20.968;2023-07-31T14:18:14;27.20;69.20
17200;DHT22;8716;52.268;20.968;2023-07-31T14:20:44;27.10;69.60
17200;DHT22;8716;52.268;20.968;2023-07-31T14:23:15;27.10;70.00
17200;DHT22;8716;52.268;20.968;2023-07-31T14:25:44;27.10;70.20
17200;DHT22;8716;52.268;20.968;2023-07-31T14:28:12;27.00;70.50
17200;DHT22;8716;52.268;20.968;2023-07-31T14:30:41;27.00;70.90
17200;DHT22;8716;52.268;20.968;2023-07-31T14:33:09;27.00;70.70
17200;DHT22;8716;52.268;20.968;2023-07-31T14:35:37;27.10;71.70
17200;DHT22;8716;52.268;20.968;2023-07-31T14:38:07;27.10;71.20
17200;DHT22;8716;52.268;20.968;2023-07-31T14:40:38;27.00;71.60
17200;DHT22;8716;52.268;20.968;2023-07-31T14:43:06;27.00;72.00
17200;DHT22;8716;52.268;20.968;2023-07-31T14:45:34;27.00;72.70
17200;DHT22;8716;52.268;20.968;2023-07-31T14:48:03;27.00;72.80
17200;DHT22;8716;52.268;20.968;2023-07-31T14:50:31;27.10;72.80
17200;DHT22;8716;52.268;20.968;2023-07-31T14:53:00;27.30;72.50
17200;DHT22;8716;52.268;20.968;2023-07-31T14:55:29;27.50;71.70
17200;DHT22;8716;52.268;20.968;2023-07-31T14:57:58;27.50;71.60
17200;DHT22;8716;52.268;20.968;2023-07-31T15:00:26;27.50;71.70
17200;DHT22;8716;52.268;20.968;2023-07-31T15:02:56;27.30;71.70
17200;DHT22;8716;52.268;20.968;2023-07-31T15:05:27;27.30;72.10
17200;DHT22;8716;52.268;20.968;2023-07-31T15:07:56;27.10;72.30
17200;DHT22;8716;52.268;20.968;2023-07-31T15:10:24;27.00;72.60
17200;DHT22;8716;52.268;20.968;2023-07-31T15:12:54;26.90;73.20
17200;DHT22;8716;52.268;20.968;2023-07-31T15:15:24;26.70;73.60
17200;DHT22;8716;52.268;20.968;2023-07-31T15:17:53;26.60;74.40
17200;DHT22;8716;52.268;20.968;2023-07-31T15:20:22;26.60;74.80
17200;DHT22;8716;52.268;20.968;2023-07-31T15:22:50;26.50;75.10
17200;DHT22;8716;52.268;20.968;2023-07-31T15:25:22;26.40;75.20
17200;DHT22;8716;52.268;20.968;2023-07-31T15:27:50;26.40;76.00
17200;DHT22;8716;52.268;20.968;2023-07-31T15:30:20;26.30;76.70
17200;DHT22;8716;52.268;20.968;2023-07-31T15:32:49;26.20;76.20
17200;DHT22;8716;52.268;20.968;2023-07-31T15:35:18;26.20;76.40
17200;DHT22;8716;52.268;20.968;2023-07-31T15:37:48;26.20;77.10
17200;DHT22;8716;52.268;20.968;2023-07-31T15:40:16;26.20;78.70
17200;DHT22;8716;52.268;20.968;2023-07-31T15:42:45;26.20;78.10
17200;DHT22;8716;52.268;20.968;2023-07-31T15:45:13;26.20;77.90